Archival Weather

Norman Y Mineta San Jose Intl

San Jose, California (KSJC)

Report from: Thursday, February 8, 2024 9:53 AM PST
Current time: Monday, June 24, 2024 2:47 AM PDT

Current weather – Weather history – Daily summaries
Weather forecast

Temperature10.0°C (50.0°F)
Wind chill9.1°C (48.5°F)
Dew point3.9°C (39.0°F)
Winds 4 kts (2.1 m/s, 4.6 mph) East-Southeast (120°)
Visibility10 mi. (16.1 km)
Clouds Few clouds 4,000 ft. (1,219 m)
Few clouds 5,500 ft. (1,676 m)
Altimeter30.02 in.Hg (1017 mB)
Relative humidity66 %
Density altitude-589 ft. (-179 m)
Sea-level pressure101.7 kPa (1017 mB, 30.02 in.Hg)
Max temp last 6 hours10.0°C (50.0°F)
Min temp last 6 hours3.3°C (37.9°F)
Remarks Automated weather observing station with precipitation discriminator
Pressure rising more slowly
Flight conditions Visual Meteorological Conditions
Raw dataKSJC 081753Z 12004KT 10SM FEW040 FEW055 10/04 A3002 RMK AO2 SLP165 T01000039 10100 20033 51014
An error has occurred. This application may no longer respond until reloaded. Reload 🗙